Time;durP1;ratioP1;P1;durP2;ratioP2;P2;SDS_P1;SDS_P2;PMS_P1;PMS_P2;Temp;Humidity;BMP_temperature;BMP_pressure;BME280_temperature;BME280_humidity;BME280_pressure;Samples;Min_cycle;Max_cycle;Signal;HPM_P1;HPM_P2
2023/04/13 00:00:34;;;;;;;1.60;0.90;;;;;;;;;;4993172;28;20798;-94
2023/04/13 00:03:00;;;;;;;3.07;1.10;;;;;;;;;;4993103;28;20432;-93
2023/04/13 00:05:27;;;;;;;1.27;0.90;;;;;;;;;;4987153;28;20534;-93
2023/04/13 00:07:53;;;;;;;1.13;0.83;;;;;;;;;;4983104;28;20546;-93
2023/04/13 00:10:19;;;;;;;1.60;0.93;;;;;;;;;;4988539;28;21284;-92
2023/04/13 00:12:48;;;;;;;1.97;0.90;;;;;;;;;;4985757;28;20439;-93
2023/04/13 00:15:16;;;;;;;1.47;1.23;;;;;;;;;;4994625;28;21219;-94
2023/04/13 00:17:42;;;;;;;1.67;0.90;;;;;;;;;;4998942;28;20441;-94
2023/04/13 00:20:12;;;;;;;1.50;1.00;;;;;;;;;;4985849;28;20558;-93
2023/04/13 00:22:38;;;;;;;1.97;0.90;;;;;;;;;;4993396;28;20424;-93
2023/04/13 00:25:05;;;;;;;2.40;0.80;;;;;;;;;;4994936;28;20443;-93
2023/04/13 00:27:31;;;;;;;1.30;0.90;;;;;;;;;;4994698;28;20466;-94
2023/04/13 00:29:57;;;;;;;1.63;0.90;;;;;;;;;;4989688;28;20428;-93
2023/04/13 00:32:24;;;;;;;1.60;0.90;;;;;;;;;;4991881;28;21022;-93
2023/04/13 00:34:50;;;;;;;1.20;1.00;;;;;;;;;;4994061;28;20426;-94
2023/04/13 00:37:17;;;;;;;1.47;0.90;;;;;;;;;;4994770;28;20428;-93
2023/04/13 00:39:45;;;;;;;1.40;0.80;;;;;;;;;;4987203;28;20446;-94
2023/04/13 00:42:11;;;;;;;0.90;0.60;;;;;;;;;;4989416;28;20444;-93
2023/04/13 00:44:37;;;;;;;1.60;0.80;;;;;;;;;;4986872;28;20426;-93
2023/04/13 00:47:04;;;;;;;2.30;2.10;;;;;;;;;;4985893;28;20507;-93
2023/04/13 00:49:32;;;;;;;1.47;1.13;;;;;;;;;;4989599;28;20456;-94
2023/04/13 00:51:58;;;;;;;2.07;0.80;;;;;;;;;;4988729;28;20424;-94
2023/04/13 00:54:24;;;;;;;1.47;1.17;;;;;;;;;;4986498;28;20536;-94
2023/04/13 00:56:51;;;;;;;2.03;0.80;;;;;;;;;;4992838;28;20432;-94
2023/04/13 00:59:17;;;;;;;1.30;1.00;;;;;;;;;;4992152;28;20412;-93
2023/04/13 01:01:49;;;;;;;2.50;1.00;;;;;;;;;;4990588;28;20440;-94
2023/04/13 01:04:18;;;;;;;1.30;0.87;;;;;;;;;;4991104;28;20426;-94
2023/04/13 01:07:10;;;;;;;1.10;0.60;;;;;;;;;;4984184;28;21073;-94
2023/04/13 01:09:41;;;;;;;1.33;0.90;;;;;;;;;;4980425;28;20501;-93
2023/04/13 01:12:11;;;;;;;8.33;5.37;;;;;;;;;;4995983;28;20447;-93
2023/04/13 01:14:48;;;;;;;1.80;0.80;;;;;;;;;;4981319;28;20526;-93
2023/04/13 01:17:16;;;;;;;1.10;0.80;;;;;;;;;;5001315;28;20521;-94
2023/04/13 01:19:45;;;;;;;1.53;1.20;;;;;;;;;;4985498;28;20489;-94
2023/04/13 01:22:13;;;;;;;1.60;0.90;;;;;;;;;;5014887;28;20441;-94
2023/04/13 01:24:48;;;;;;;1.40;0.70;;;;;;;;;;4990462;28;20443;-94
2023/04/13 01:27:19;;;;;;;2.20;1.00;;;;;;;;;;5002048;28;20432;-94
2023/04/13 01:29:46;;;;;;;2.07;0.80;;;;;;;;;;5000667;28;20432;-93
2023/04/13 01:32:12;;;;;;;1.20;0.90;;;;;;;;;;4988138;28;20463;-93
2023/04/13 01:34:38;;;;;;;1.40;1.00;;;;;;;;;;4988750;28;20424;-95
2023/04/13 01:37:05;;;;;;;2.50;1.00;;;;;;;;;;4986522;28;20428;-94
2023/04/13 01:39:32;;;;;;;1.30;1.00;;;;;;;;;;4985199;28;20451;-93
2023/04/13 01:41:58;;;;;;;1.10;0.87;;;;;;;;;;4985162;28;20955;-93
2023/04/13 01:44:31;;;;;;;4.80;1.00;;;;;;;;;;4986291;28;20430;-94
2023/04/13 01:47:00;;;;;;;1.27;0.90;;;;;;;;;;4970864;28;20466;-95
2023/04/13 01:49:26;;;;;;;1.70;1.10;;;;;;;;;;4955597;28;20457;-94
2023/04/13 01:51:53;;;;;;;1.43;0.93;;;;;;;;;;4958748;28;20454;-94
2023/04/13 01:54:20;;;;;;;6.83;1.03;;;;;;;;;;4945827;28;20422;-93
2023/04/13 01:56:45;;;;;;;3.23;1.00;;;;;;;;;;4962331;28;20926;-93
2023/04/13 01:59:12;;;;;;;1.77;1.00;;;;;;;;;;4960944;28;20481;-94
2023/04/13 02:01:39;;;;;;;1.60;1.20;;;;;;;;;;4964616;28;20430;-95
2023/04/13 02:04:06;;;;;;;4.20;1.07;;;;;;;;;;4963251;28;20493;-95
2023/04/13 02:06:32;;;;;;;1.10;0.70;;;;;;;;;;4947801;28;20438;-94
2023/04/13 02:08:58;;;;;;;2.90;1.10;;;;;;;;;;4960902;28;20460;-95
2023/04/13 02:11:24;;;;;;;6.57;1.10;;;;;;;;;;4969332;28;20481;-95
2023/04/13 02:13:51;;;;;;;6.20;1.00;;;;;;;;;;4947969;28;20422;-94
2023/04/13 02:16:18;;;;;;;1.60;0.80;;;;;;;;;;4961019;28;20613;-93
2023/04/13 02:18:45;;;;;;;5.00;1.10;;;;;;;;;;4978188;28;20443;-94
2023/04/13 02:21:12;;;;;;;1.97;0.93;;;;;;;;;;4988924;28;20441;-93
2023/04/13 02:23:39;;;;;;;2.17;1.00;;;;;;;;;;4997708;28;20443;-94
2023/04/13 02:26:15;;;;;;;1.20;0.97;;;;;;;;;;4984869;28;20524;-94
2023/04/13 02:28:41;;;;;;;3.80;1.47;;;;;;;;;;4984977;28;20458;-94
2023/04/13 02:31:07;;;;;;;1.90;1.00;;;;;;;;;;4993127;28;20873;-94
2023/04/13 02:33:34;;;;;;;1.00;0.87;;;;;;;;;;4984519;28;20444;-94
2023/04/13 02:36:03;;;;;;;3.27;0.83;;;;;;;;;;4988459;28;20435;-94
2023/04/13 02:38:30;;;;;;;1.43;1.20;;;;;;;;;;4985136;28;21029;-94
2023/04/13 02:40:57;;;;;;;1.40;1.17;;;;;;;;;;4990370;28;21571;-94
2023/04/13 02:43:25;;;;;;;1.10;0.77;;;;;;;;;;4993805;28;20518;-94
2023/04/13 02:45:51;;;;;;;1.10;0.90;;;;;;;;;;4991690;28;20446;-94
2023/04/13 02:48:17;;;;;;;2.43;0.87;;;;;;;;;;4986797;28;20466;-94
2023/04/13 02:50:43;;;;;;;3.23;0.93;;;;;;;;;;4985514;28;21050;-94
2023/04/13 02:53:09;;;;;;;1.30;0.90;;;;;;;;;;4973396;28;20461;-95
2023/04/13 02:55:35;;;;;;;1.97;1.17;;;;;;;;;;4989472;28;20439;-94
2023/04/13 02:58:03;;;;;;;1.80;1.10;;;;;;;;;;4987878;28;20449;-95
2023/04/13 03:00:29;;;;;;;3.57;1.10;;;;;;;;;;4992493;28;20450;-94
2023/04/13 03:02:56;;;;;;;1.20;1.00;;;;;;;;;;4991350;28;20482;-94
2023/04/13 03:05:22;;;;;;;1.60;0.90;;;;;;;;;;4977662;28;20468;-94
2023/04/13 03:07:48;;;;;;;1.20;1.00;;;;;;;;;;5002786;28;20488;-95
2023/04/13 03:10:14;;;;;;;1.80;1.40;;;;;;;;;;4984009;28;20448;-94
2023/04/13 03:12:40;;;;;;;1.23;1.03;;;;;;;;;;4977072;28;20435;-94
2023/04/13 03:15:09;;;;;;;1.33;1.17;;;;;;;;;;4985016;28;20445;-93
2023/04/13 03:17:39;;;;;;;1.50;1.13;;;;;;;;;;4991527;28;20495;-94
2023/04/13 03:20:08;;;;;;;2.97;1.30;;;;;;;;;;4983875;28;20453;-95
2023/04/13 03:22:35;;;;;;;1.20;0.90;;;;;;;;;;4994437;28;20440;-94
2023/04/13 03:25:01;;;;;;;2.00;1.20;;;;;;;;;;4986161;28;20436;-94
2023/04/13 03:27:27;;;;;;;1.40;0.87;;;;;;;;;;4984587;28;20439;-94
2023/04/13 03:29:53;;;;;;;1.40;1.07;;;;;;;;;;4992109;28;20473;-94
2023/04/13 03:32:20;;;;;;;1.63;1.13;;;;;;;;;;5003161;28;20423;-94
2023/04/13 03:34:46;;;;;;;1.73;1.00;;;;;;;;;;4982112;28;20420;-94
2023/04/13 03:37:12;;;;;;;4.40;1.10;;;;;;;;;;4988600;28;20442;-95
2023/04/13 03:39:38;;;;;;;1.40;1.00;;;;;;;;;;4987355;28;20459;-94
2023/04/13 03:42:04;;;;;;;2.10;1.10;;;;;;;;;;4991517;28;20428;-94
2023/04/13 03:44:30;;;;;;;1.87;1.30;;;;;;;;;;4987017;28;20439;-95
2023/04/13 03:46:56;;;;;;;1.20;1.00;;;;;;;;;;4991195;28;20453;-94
2023/04/13 03:49:22;;;;;;;1.30;1.03;;;;;;;;;;4992657;28;20456;-94
2023/04/13 03:51:49;;;;;;;1.60;1.10;;;;;;;;;;5009252;28;20462;-95
2023/04/13 03:54:15;;;;;;;2.13;1.57;;;;;;;;;;4989778;28;20438;-93
2023/04/13 03:56:41;;;;;;;2.43;1.30;;;;;;;;;;4988322;28;20432;-94
2023/04/13 03:59:07;;;;;;;1.70;1.30;;;;;;;;;;4994958;28;20455;-94
2023/04/13 04:01:33;;;;;;;1.50;1.20;;;;;;;;;;4991717;28;20962;-94
2023/04/13 04:03:59;;;;;;;2.57;1.73;;;;;;;;;;4987689;28;20655;-94
2023/04/13 04:06:28;;;;;;;3.03;1.53;;;;;;;;;;4998452;28;20443;-94
2023/04/13 04:08:54;;;;;;;1.57;1.47;;;;;;;;;;4985423;28;20500;-94
2023/04/13 04:11:21;;;;;;;2.70;1.53;;;;;;;;;;5012191;28;20433;-96
2023/04/13 04:13:47;;;;;;;4.00;2.33;;;;;;;;;;4984897;28;20428;-94
2023/04/13 04:16:13;;;;;;;2.00;1.50;;;;;;;;;;4994964;28;20527;-95
2023/04/13 04:18:39;;;;;;;2.70;1.13;;;;;;;;;;4994942;28;20494;-96
2023/04/13 04:21:05;;;;;;;2.13;1.33;;;;;;;;;;4990606;28;20440;-96
2023/04/13 04:23:33;;;;;;;4.83;1.47;;;;;;;;;;4995710;28;20444;-93
2023/04/13 04:26:01;;;;;;;2.43;1.50;;;;;;;;;;4988164;28;20962;-92
2023/04/13 04:28:29;;;;;;;3.60;1.00;;;;;;;;;;4992081;28;21008;-92
2023/04/13 04:30:55;;;;;;;1.33;0.93;;;;;;;;;;4987091;28;20985;-92
2023/04/13 04:33:21;;;;;;;1.73;1.33;;;;;;;;;;4985363;28;20436;-92
2023/04/13 04:35:49;;;;;;;2.20;1.10;;;;;;;;;;4993742;28;20439;-93
2023/04/13 04:38:16;;;;;;;2.30;1.00;;;;;;;;;;5001160;28;20466;-93
2023/04/13 04:40:44;;;;;;;1.73;0.97;;;;;;;;;;4987086;28;20851;-92
2023/04/13 04:43:11;;;;;;;5.40;1.30;;;;;;;;;;4983991;28;20455;-91
2023/04/13 04:45:40;;;;;;;7.23;1.80;;;;;;;;;;4983684;28;20444;-92
2023/04/13 04:48:06;;;;;;;2.03;1.10;;;;;;;;;;4986197;28;20471;-93
2023/04/13 04:50:32;;;;;;;1.53;1.30;;;;;;;;;;4986866;28;20439;-92
2023/04/13 04:52:58;;;;;;;3.27;1.07;;;;;;;;;;4986018;28;20424;-93
2023/04/13 04:55:25;;;;;;;6.20;1.10;;;;;;;;;;4982662;28;20454;-93
2023/04/13 04:57:51;;;;;;;3.70;1.40;;;;;;;;;;4984484;28;20488;-92
2023/04/13 05:00:17;;;;;;;3.63;1.20;;;;;;;;;;4988369;28;20467;-92
2023/04/13 05:02:43;;;;;;;4.40;1.50;;;;;;;;;;4987382;28;20440;-92
2023/04/13 05:05:10;;;;;;;2.43;1.30;;;;;;;;;;5000660;28;20436;-92
2023/04/13 05:07:37;;;;;;;3.17;1.23;;;;;;;;;;4984267;28;20602;-92
2023/04/13 05:10:03;;;;;;;4.80;1.20;;;;;;;;;;4985067;28;20428;-92
2023/04/13 05:12:29;;;;;;;1.30;0.93;;;;;;;;;;4991136;28;20432;-92
2023/04/13 05:14:55;;;;;;;1.90;1.10;;;;;;;;;;4988320;28;20431;-92
2023/04/13 05:17:24;;;;;;;3.53;1.10;;;;;;;;;;5002725;28;20800;-92
2023/04/13 05:19:50;;;;;;;3.40;2.33;;;;;;;;;;4990778;28;20498;-92
2023/04/13 05:22:16;;;;;;;2.63;1.97;;;;;;;;;;4985623;28;20443;-91
2023/04/13 05:24:42;;;;;;;3.87;1.10;;;;;;;;;;4985699;28;20439;-92
2023/04/13 05:27:10;;;;;;;8.43;1.40;;;;;;;;;;4984585;28;20440;-93
2023/04/13 05:29:36;;;;;;;1.90;1.30;;;;;;;;;;4984386;28;20440;-92
2023/04/13 05:32:02;;;;;;;3.87;1.50;;;;;;;;;;4986346;28;20460;-92
2023/04/13 05:34:28;;;;;;;2.53;1.30;;;;;;;;;;4987046;28;20498;-92
2023/04/13 05:36:56;;;;;;;3.10;1.70;;;;;;;;;;4982598;28;20857;-92
2023/04/13 05:39:23;;;;;;;4.10;1.60;;;;;;;;;;4984386;28;20518;-92
2023/04/13 05:41:49;;;;;;;4.37;1.60;;;;;;;;;;4978310;28;20428;-92
2023/04/13 05:44:15;;;;;;;4.23;1.57;;;;;;;;;;4983444;28;20420;-91
2023/04/13 05:46:41;;;;;;;4.83;1.90;;;;;;;;;;4980579;28;20541;-92
2023/04/13 05:49:07;;;;;;;3.53;1.20;;;;;;;;;;5002837;28;20495;-91
2023/04/13 05:51:33;;;;;;;2.10;1.20;;;;;;;;;;4985357;28;20428;-92
2023/04/13 05:53:59;;;;;;;3.03;2.10;;;;;;;;;;4995705;28;20440;-92
2023/04/13 05:56:25;;;;;;;4.73;1.27;;;;;;;;;;5002233;28;20431;-93
2023/04/13 05:58:52;;;;;;;3.00;1.80;;;;;;;;;;4984313;28;20490;-92
2023/04/13 06:01:18;;;;;;;3.60;1.33;;;;;;;;;;4985914;28;20431;-92
2023/04/13 06:03:45;;;;;;;2.63;1.10;;;;;;;;;;4984766;28;20767;-92
2023/04/13 06:06:13;;;;;;;4.07;1.63;;;;;;;;;;4991967;28;20956;-93
2023/04/13 06:08:39;;;;;;;1.90;1.73;;;;;;;;;;5008928;28;20471;-93
2023/04/13 06:11:06;;;;;;;3.67;1.47;;;;;;;;;;4984571;28;20439;-93
2023/04/13 06:13:32;;;;;;;2.40;1.07;;;;;;;;;;4984361;28;20479;-93
2023/04/13 06:15:59;;;;;;;5.60;1.33;;;;;;;;;;4980843;28;20432;-92
2023/04/13 06:18:25;;;;;;;3.20;1.30;;;;;;;;;;4999414;28;20443;-91
2023/04/13 06:20:51;;;;;;;2.63;1.00;;;;;;;;;;4982373;28;20432;-91
2023/04/13 06:23:18;;;;;;;2.93;1.77;;;;;;;;;;4982270;28;20488;-92
2023/04/13 06:25:44;;;;;;;3.77;1.20;;;;;;;;;;4996667;28;20443;-92
2023/04/13 06:28:10;;;;;;;2.63;1.67;;;;;;;;;;4982258;28;20460;-91
2023/04/13 06:30:36;;;;;;;3.07;1.27;;;;;;;;;;5002613;28;20793;-91
2023/04/13 06:33:03;;;;;;;4.43;2.00;;;;;;;;;;4986617;28;20473;-91
2023/04/13 06:35:35;;;;;;;2.10;1.13;;;;;;;;;;4991387;28;20797;-91
2023/04/13 06:38:01;;;;;;;1.33;0.90;;;;;;;;;;4974038;28;20479;-92
2023/04/13 06:40:27;;;;;;;4.30;1.20;;;;;;;;;;4977221;28;20440;-92
2023/04/13 06:42:53;;;;;;;6.07;1.30;;;;;;;;;;4987277;28;20436;-92
2023/04/13 06:45:20;;;;;;;1.73;0.97;;;;;;;;;;4985454;28;20425;-91
2023/04/13 06:47:46;;;;;;;4.73;1.40;;;;;;;;;;4985746;28;20447;-92
2023/04/13 06:50:12;;;;;;;4.20;1.53;;;;;;;;;;4983958;28;20442;-91
2023/04/13 06:52:41;;;;;;;1.50;1.00;;;;;;;;;;4987417;28;20428;-92
2023/04/13 06:55:07;;;;;;;1.77;1.27;;;;;;;;;;5001812;28;20412;-92
2023/04/13 06:57:33;;;;;;;2.40;1.60;;;;;;;;;;4987493;28;20949;-90
2023/04/13 07:00:00;;;;;;;6.90;1.60;;;;;;;;;;4991181;28;20502;-91
2023/04/13 07:02:26;;;;;;;1.83;1.13;;;;;;;;;;4983375;28;22173;-92
2023/04/13 07:04:53;;;;;;;2.37;1.03;;;;;;;;;;4984236;28;20420;-91
2023/04/13 07:07:19;;;;;;;5.50;1.67;;;;;;;;;;4985300;28;20432;-91
2023/04/13 07:09:45;;;;;;;5.70;1.00;;;;;;;;;;4986059;28;20576;-91
2023/04/13 07:12:11;;;;;;;4.13;1.60;;;;;;;;;;4984359;28;20998;-90
2023/04/13 07:14:38;;;;;;;3.00;1.40;;;;;;;;;;4987576;28;20427;-90
2023/04/13 07:17:04;;;;;;;1.40;1.03;;;;;;;;;;4986586;28;20684;-89
2023/04/13 07:19:30;;;;;;;3.20;1.70;;;;;;;;;;4998137;28;20447;-89
2023/04/13 07:21:58;;;;;;;2.80;1.47;;;;;;;;;;4990832;28;20969;-89
2023/04/13 07:24:25;;;;;;;4.40;1.17;;;;;;;;;;4989543;28;20802;-92
2023/04/13 07:26:51;;;;;;;4.43;1.13;;;;;;;;;;4986244;28;20439;-92
2023/04/13 07:29:17;;;;;;;2.73;1.87;;;;;;;;;;4982832;28;20467;-92
2023/04/13 07:31:46;;;;;;;1.67;1.30;;;;;;;;;;4990779;28;20432;-94
2023/04/13 07:34:12;;;;;;;2.27;1.10;;;;;;;;;;4991176;28;20508;-91
2023/04/13 07:36:38;;;;;;;3.60;1.77;;;;;;;;;;4993635;28;20467;-93
2023/04/13 07:39:07;;;;;;;5.93;1.50;;;;;;;;;;4985921;28;20462;-92
2023/04/13 07:41:33;;;;;;;6.90;1.40;;;;;;;;;;4989488;28;20431;-92
2023/04/13 07:43:59;;;;;;;5.03;1.57;;;;;;;;;;4997616;28;20447;-91
2023/04/13 07:46:28;;;;;;;2.50;1.50;;;;;;;;;;4987648;28;20428;-91
2023/04/13 07:48:55;;;;;;;6.17;1.80;;;;;;;;;;4985315;28;20472;-92
2023/04/13 07:51:21;;;;;;;1.93;1.10;;;;;;;;;;4986805;28;20412;-91
2023/04/13 07:53:54;;;;;;;3.17;1.50;;;;;;;;;;4982632;28;20428;-88
2023/04/13 07:56:20;;;;;;;2.80;1.50;;;;;;;;;;4991776;28;20486;-89
2023/04/13 07:58:46;;;;;;;4.70;1.30;;;;;;;;;;5000412;28;20442;-91
2023/04/13 08:01:12;;;;;;;8.60;1.63;;;;;;;;;;4987363;28;20436;-90
2023/04/13 08:03:38;;;;;;;4.10;2.27;;;;;;;;;;4985368;28;20492;-90
2023/04/13 08:06:08;;;;;;;2.67;1.60;;;;;;;;;;4981783;28;20452;-90
2023/04/13 08:08:34;;;;;;;3.40;1.33;;;;;;;;;;4988084;28;20487;-87
2023/04/13 08:11:00;;;;;;;5.53;1.57;;;;;;;;;;4990099;28;21142;-92
2023/04/13 08:13:29;;;;;;;11.83;2.50;;;;;;;;;;4994112;28;20785;-92
2023/04/13 08:15:56;;;;;;;5.03;1.43;;;;;;;;;;4982565;28;20440;-89
2023/04/13 08:18:22;;;;;;;2.13;1.07;;;;;;;;;;5006159;28;20436;-90
2023/04/13 08:20:49;;;;;;;4.80;1.80;;;;;;;;;;4986756;28;20474;-92
2023/04/13 08:23:15;;;;;;;2.30;1.33;;;;;;;;;;4985657;28;21105;-90
2023/04/13 08:25:41;;;;;;;3.67;1.23;;;;;;;;;;4986005;28;20492;-93
2023/04/13 08:28:08;;;;;;;3.90;1.57;;;;;;;;;;4983610;28;20467;-91
2023/04/13 08:30:34;;;;;;;2.03;1.10;;;;;;;;;;4990956;28;20440;-90
2023/04/13 08:33:01;;;;;;;5.10;1.90;;;;;;;;;;4980295;28;20440;-92
2023/04/13 08:35:27;;;;;;;6.63;1.13;;;;;;;;;;4987035;28;20432;-90
2023/04/13 08:37:53;;;;;;;3.00;1.20;;;;;;;;;;4990463;28;20445;-91
2023/04/13 08:40:19;;;;;;;2.67;1.30;;;;;;;;;;4986140;28;20427;-91
2023/04/13 08:42:46;;;;;;;6.30;1.60;;;;;;;;;;4989141;28;20432;-90
2023/04/13 08:45:12;;;;;;;11.30;1.77;;;;;;;;;;4985914;28;20427;-91
2023/04/13 08:47:39;;;;;;;4.90;1.50;;;;;;;;;;4990339;28;20428;-91
2023/04/13 08:50:08;;;;;;;3.80;1.60;;;;;;;;;;5002690;28;20429;-91
2023/04/13 08:52:34;;;;;;;3.90;1.40;;;;;;;;;;4999810;28;20451;-90
2023/04/13 08:55:02;;;;;;;2.40;1.20;;;;;;;;;;4988768;28;20428;-92
2023/04/13 08:57:29;;;;;;;2.10;1.40;;;;;;;;;;4985638;28;20437;-91
2023/04/13 08:59:56;;;;;;;4.73;1.67;;;;;;;;;;4986586;28;20444;-90
2023/04/13 09:02:23;;;;;;;5.83;1.40;;;;;;;;;;4997940;28;20445;-93
2023/04/13 09:04:51;;;;;;;3.83;1.50;;;;;;;;;;5010453;28;20432;-94
2023/04/13 09:07:25;;;;;;;4.67;1.33;;;;;;;;;;4995719;28;20481;-94
2023/04/13 09:09:51;;;;;;;1.97;1.30;;;;;;;;;;4993755;28;20431;-90
2023/04/13 09:12:17;;;;;;;6.80;1.30;;;;;;;;;;4980899;28;20424;-91
2023/04/13 09:14:43;;;;;;;3.50;1.30;;;;;;;;;;4981131;28;20460;-91
2023/04/13 09:17:09;;;;;;;2.20;1.20;;;;;;;;;;4999808;28;20440;-92
2023/04/13 09:19:36;;;;;;;3.77;1.40;;;;;;;;;;4985287;28;21010;-92
2023/04/13 09:22:15;;;;;;;3.30;1.40;;;;;;;;;;4985094;28;20531;-91
2023/04/13 09:24:41;;;;;;;5.10;1.23;;;;;;;;;;4998913;28;20439;-89
2023/04/13 09:27:16;;;;;;;4.60;1.30;;;;;;;;;;4989113;28;20503;-92
2023/04/13 09:29:48;;;;;;;2.33;1.10;;;;;;;;;;4990490;28;20471;-93
2023/04/13 09:32:21;;;;;;;3.80;1.30;;;;;;;;;;4990854;28;20428;-91
2023/04/13 09:34:56;;;;;;;2.77;1.40;;;;;;;;;;4985732;28;20521;-93
2023/04/13 09:37:22;;;;;;;2.27;1.30;;;;;;;;;;4994895;28;20454;-91
2023/04/13 09:39:49;;;;;;;2.37;1.43;;;;;;;;;;4986938;28;20440;-92
2023/04/13 09:42:19;;;;;;;7.77;3.43;;;;;;;;;;4999098;28;20856;-91
2023/04/13 09:44:55;;;;;;;2.03;1.27;;;;;;;;;;4992608;28;20444;-93
2023/04/13 09:47:21;;;;;;;3.67;1.43;;;;;;;;;;4986454;28;20439;-93
2023/04/13 09:49:47;;;;;;;5.40;1.40;;;;;;;;;;4986726;28;21003;-93
2023/04/13 09:52:23;;;;;;;4.43;0.93;;;;;;;;;;4986021;28;20478;-93
2023/04/13 09:54:50;;;;;;;6.07;1.70;;;;;;;;;;4987351;28;20436;-93
2023/04/13 09:57:29;;;;;;;2.00;1.10;;;;;;;;;;4994062;28;20439;-93
2023/04/13 09:59:56;;;;;;;3.17;1.20;;;;;;;;;;4994224;28;20440;-92
2023/04/13 10:02:23;;;;;;;2.90;1.07;;;;;;;;;;4987297;28;20428;-92
2023/04/13 10:04:49;;;;;;;3.53;1.13;;;;;;;;;;4985436;28;20432;-93
2023/04/13 10:07:15;;;;;;;3.30;1.00;;;;;;;;;;4980939;28;20500;-94
2023/04/13 10:09:44;;;;;;;2.23;1.20;;;;;;;;;;4991728;28;20571;-91
2023/04/13 10:12:12;;;;;;;4.57;1.70;;;;;;;;;;4997676;28;20444;-91
2023/04/13 10:14:39;;;;;;;3.47;1.43;;;;;;;;;;4987628;28;20995;-92
2023/04/13 10:17:14;;;;;;;3.03;1.90;;;;;;;;;;4983220;28;20439;-93
2023/04/13 10:19:45;;;;;;;2.60;1.33;;;;;;;;;;5007542;28;20420;-92
2023/04/13 10:22:11;;;;;;;4.90;1.27;;;;;;;;;;5000377;28;20439;-92
2023/04/13 10:24:38;;;;;;;4.83;1.63;;;;;;;;;;4984940;28;20813;-91
2023/04/13 10:27:20;;;;;;;5.23;2.20;;;;;;;;;;4973691;28;20436;-93
2023/04/13 10:29:46;;;;;;;7.00;2.30;;;;;;;;;;4993597;28;20461;-92
2023/04/13 10:32:22;;;;;;;2.70;1.20;;;;;;;;;;4984410;28;20474;-93
2023/04/13 10:34:48;;;;;;;5.90;1.47;;;;;;;;;;4985160;28;20842;-92
2023/04/13 10:37:21;;;;;;;3.57;1.43;;;;;;;;;;4997537;28;20427;-92
2023/04/13 10:39:48;;;;;;;4.50;1.70;;;;;;;;;;4992939;28;20463;-92
2023/04/13 10:42:14;;;;;;;5.03;1.53;;;;;;;;;;4981167;28;20433;-92
2023/04/13 10:44:47;;;;;;;1.90;1.20;;;;;;;;;;4998884;28;20532;-92
2023/04/13 10:47:13;;;;;;;3.27;1.80;;;;;;;;;;5017737;28;20443;-90
2023/04/13 10:49:40;;;;;;;5.10;2.43;;;;;;;;;;5002027;28;20562;-90
2023/04/13 10:52:06;;;;;;;6.10;1.20;;;;;;;;;;5015847;28;20816;-90
2023/04/13 10:54:33;;;;;;;4.33;1.73;;;;;;;;;;4993617;28;21015;-90
2023/04/13 10:57:03;;;;;;;1.67;0.90;;;;;;;;;;4982567;28;20543;-90
2023/04/13 10:59:40;;;;;;;7.60;1.90;;;;;;;;;;5000409;28;20468;-90
2023/04/13 11:02:08;;;;;;;3.87;1.27;;;;;;;;;;5020236;28;20464;-90
2023/04/13 11:04:37;;;;;;;4.03;1.53;;;;;;;;;;4985972;28;20719;-93
2023/04/13 11:07:03;;;;;;;3.50;1.70;;;;;;;;;;4992153;28;20446;-90
2023/04/13 11:09:29;;;;;;;4.10;1.60;;;;;;;;;;4986120;28;20609;-90
2023/04/13 11:11:55;;;;;;;2.90;1.30;;;;;;;;;;4984913;28;20424;-89
2023/04/13 11:14:22;;;;;;;2.30;1.50;;;;;;;;;;4988584;28;20800;-89
2023/04/13 11:16:48;;;;;;;10.93;1.40;;;;;;;;;;4994413;28;20454;-89
2023/04/13 11:19:14;;;;;;;4.57;1.50;;;;;;;;;;4984875;28;20435;-92
2023/04/13 11:21:43;;;;;;;2.43;1.47;;;;;;;;;;4984994;28;20919;-91
2023/04/13 11:24:09;;;;;;;4.17;1.63;;;;;;;;;;4997547;28;20447;-90
2023/04/13 11:26:38;;;;;;;7.27;1.33;;;;;;;;;;4980374;28;20501;-90
2023/04/13 11:29:04;;;;;;;7.07;1.93;;;;;;;;;;4964671;28;20468;-90
2023/04/13 11:31:37;;;;;;;9.63;2.00;;;;;;;;;;4977205;28;20444;-88
2023/04/13 11:34:08;;;;;;;3.70;2.00;;;;;;;;;;4959381;28;20452;-89
2023/04/13 11:36:34;;;;;;;3.57;1.40;;;;;;;;;;4967809;28;20469;-92
2023/04/13 11:39:04;;;;;;;4.27;1.90;;;;;;;;;;4962923;28;20488;-91
2023/04/13 11:41:31;;;;;;;7.97;1.93;;;;;;;;;;4959910;28;20425;-91
2023/04/13 11:44:00;;;;;;;8.60;1.80;;;;;;;;;;4999354;28;20889;-91
2023/04/13 11:46:27;;;;;;;6.33;1.80;;;;;;;;;;4973308;28;20525;-93
2023/04/13 11:48:54;;;;;;;4.40;1.50;;;;;;;;;;4960389;28;20471;-91
2023/04/13 11:51:20;;;;;;;5.07;1.80;;;;;;;;;;4960963;28;20434;-90
2023/04/13 11:53:46;;;;;;;7.40;2.43;;;;;;;;;;4962893;28;20430;-91
2023/04/13 11:56:13;;;;;;;5.13;1.30;;;;;;;;;;4942457;29;20419;-89
2023/04/13 11:58:41;;;;;;;5.40;1.43;;;;;;;;;;4943494;29;20451;-92
2023/04/13 12:01:12;;;;;;;7.83;1.77;;;;;;;;;;4930843;29;21244;-92
2023/04/13 12:03:39;;;;;;;5.70;1.60;;;;;;;;;;4946137;29;20433;-93
2023/04/13 12:06:15;;;;;;;4.23;1.30;;;;;;;;;;4930647;29;20914;-93
2023/04/13 12:08:44;;;;;;;5.97;2.10;;;;;;;;;;4961515;28;20478;-93
2023/04/13 12:11:33;;;;;;;2.27;1.33;;;;;;;;;;4963347;28;20509;-94
2023/04/13 12:16:52;;;;;;;7.93;6.37;;;;;;;;;;4930562;29;20420;-93
2023/04/13 12:19:26;;;;;;;9.10;3.77;;;;;;;;;;4928599;29;20904;-93
2023/04/13 12:21:55;;;;;;;4.80;2.47;;;;;;;;;;4941155;28;20430;-93
2023/04/13 12:24:30;;;;;;;4.10;2.87;;;;;;;;;;4962962;28;20529;-93
2023/04/13 12:26:56;;;;;;;7.33;2.77;;;;;;;;;;4946187;28;20435;-93
2023/04/13 12:29:25;;;;;;;5.10;2.40;;;;;;;;;;4951908;28;20476;-93
2023/04/13 12:31:52;;;;;;;4.23;2.70;;;;;;;;;;4967135;28;20426;-92
2023/04/13 12:34:19;;;;;;;5.40;4.60;;;;;;;;;;4950632;28;20450;-92
2023/04/13 12:36:54;;;;;;;5.07;2.93;;;;;;;;;;4946006;29;20470;-92
2023/04/13 12:39:20;;;;;;;8.80;4.57;;;;;;;;;;4996264;28;20520;-94
2023/04/13 12:41:46;;;;;;;4.30;3.43;;;;;;;;;;4997203;28;20440;-94
2023/04/13 12:44:16;;;;;;;5.43;3.80;;;;;;;;;;4985810;28;20437;-92
2023/04/13 12:46:44;;;;;;;7.17;3.60;;;;;;;;;;5005684;28;20436;-94
2023/04/13 12:49:13;;;;;;;4.57;3.40;;;;;;;;;;4996885;28;20471;-94
2023/04/13 12:51:39;;;;;;;4.90;1.97;;;;;;;;;;4997113;28;20422;-93
2023/04/13 12:54:10;;;;;;;4.23;2.37;;;;;;;;;;4996155;28;20448;-93
2023/04/13 12:56:39;;;;;;;8.77;3.00;;;;;;;;;;4984891;28;20927;-94
2023/04/13 12:59:06;;;;;;;4.37;2.20;;;;;;;;;;4982550;28;20468;-91
2023/04/13 13:01:48;;;;;;;4.10;1.57;;;;;;;;;;4988037;28;20439;-94
2023/04/13 13:04:54;;;;;;;;;;;;;;;;;;;;;
2023/04/13 13:07:21;;;;;;;5.63;1.37;;;;;;;;;;5014130;28;20514;-89
2023/04/13 13:09:48;;;;;;;2.67;1.20;;;;;;;;;;4989522;28;20545;-91
2023/04/13 13:12:14;;;;;;;4.03;2.10;;;;;;;;;;5001754;28;20427;-91
2023/04/13 13:14:44;;;;;;;7.33;1.60;;;;;;;;;;4980664;28;20955;-90
2023/04/13 13:17:11;;;;;;;1.53;1.00;;;;;;;;;;4996408;28;20943;-90
2023/04/13 13:19:38;;;;;;;1.40;0.90;;;;;;;;;;4980154;28;20447;-88
2023/04/13 13:22:04;;;;;;;1.93;0.90;;;;;;;;;;4978526;28;20535;-91
2023/04/13 13:24:30;;;;;;;3.53;1.13;;;;;;;;;;4976693;28;20485;-89
2023/04/13 13:26:57;;;;;;;4.80;1.10;;;;;;;;;;4979771;28;20522;-89
2023/04/13 13:29:23;;;;;;;2.20;1.30;;;;;;;;;;4980715;28;20471;-91
2023/04/13 13:31:50;;;;;;;1.20;0.80;;;;;;;;;;4981519;28;20460;-91
2023/04/13 13:34:16;;;;;;;2.60;1.00;;;;;;;;;;4996692;28;21258;-90
2023/04/13 13:36:45;;;;;;;3.63;1.53;;;;;;;;;;4986918;28;20456;-92
2023/04/13 13:39:12;;;;;;;1.60;0.97;;;;;;;;;;4938719;28;1674864;-88
2023/04/13 13:41:38;;;;;;;2.27;1.10;;;;;;;;;;4997660;28;20188;-89
2023/04/13 13:44:04;;;;;;;2.87;1.73;;;;;;;;;;4983468;28;20440;-92
2023/04/13 13:46:30;;;;;;;2.90;1.00;;;;;;;;;;4993916;28;20443;-92
2023/04/13 13:48:56;;;;;;;4.80;1.00;;;;;;;;;;4978094;28;20455;-92
2023/04/13 13:51:22;;;;;;;3.83;1.30;;;;;;;;;;4980825;28;20436;-90
2023/04/13 13:53:48;;;;;;;2.23;1.07;;;;;;;;;;4979606;28;20432;-92
2023/04/13 13:56:14;;;;;;;2.70;1.17;;;;;;;;;;4981914;28;20440;-90
2023/04/13 13:58:40;;;;;;;4.37;1.27;;;;;;;;;;4988302;28;20444;-91
2023/04/13 14:01:06;;;;;;;3.10;1.00;;;;;;;;;;4996594;28;20441;-92
2023/04/13 14:03:32;;;;;;;2.13;1.20;;;;;;;;;;4996910;28;20988;-92
2023/04/13 14:05:58;;;;;;;5.27;1.07;;;;;;;;;;4978874;28;20494;-91
2023/04/13 14:08:24;;;;;;;3.03;1.37;;;;;;;;;;4978705;28;20522;-91
2023/04/13 14:10:50;;;;;;;1.53;0.93;;;;;;;;;;4989140;28;20431;-90
2023/04/13 14:13:16;;;;;;;2.00;0.97;;;;;;;;;;4981438;28;20816;-90
2023/04/13 14:15:42;;;;;;;1.27;0.80;;;;;;;;;;4978154;28;20428;-90
2023/04/13 14:18:08;;;;;;;1.53;1.10;;;;;;;;;;4976357;28;20607;-90
2023/04/13 14:20:37;;;;;;;3.17;1.07;;;;;;;;;;4980243;28;20533;-90
2023/04/13 14:23:03;;;;;;;2.60;1.40;;;;;;;;;;4975685;28;20806;-90
2023/04/13 14:25:29;;;;;;;2.40;1.10;;;;;;;;;;4994458;28;20433;-88
2023/04/13 14:27:55;;;;;;;2.77;1.00;;;;;;;;;;4972802;28;20443;-89
2023/04/13 14:30:25;;;;;;;2.00;1.13;;;;;;;;;;4997173;28;20851;-90
2023/04/13 14:32:51;;;;;;;4.30;1.40;;;;;;;;;;4979916;28;20880;-90
2023/04/13 14:35:18;;;;;;;1.57;1.00;;;;;;;;;;4984083;28;20464;-90
2023/04/13 14:37:46;;;;;;;1.37;1.10;;;;;;;;;;4983122;28;20502;-90
2023/04/13 14:40:15;;;;;;;1.60;1.10;;;;;;;;;;4989233;28;20442;-90
2023/04/13 14:42:41;;;;;;;2.70;1.53;;;;;;;;;;4980479;28;21044;-89
2023/04/13 14:45:12;;;;;;;3.23;1.10;;;;;;;;;;4977847;28;20468;-90
2023/04/13 14:47:38;;;;;;;1.30;0.90;;;;;;;;;;4983780;28;20458;-89